sensor_id;sensor_type;location;lat;lon;timestamp;temperature;humidity
21115;DHT22;10715;48.546;9.896;2023-02-04T00:00:51;4.40;99.90
21115;DHT22;10715;48.546;9.896;2023-02-04T00:03:16;4.40;99.90
21115;DHT22;10715;48.546;9.896;2023-02-04T00:05:42;4.40;99.90
21115;DHT22;10715;48.546;9.896;2023-02-04T00:08:08;4.50;99.90
21115;DHT22;10715;48.546;9.896;2023-02-04T00:10:35;4.50;99.90
21115;DHT22;10715;48.546;9.896;2023-02-04T00:13:02;4.50;99.90
21115;DHT22;10715;48.546;9.896;2023-02-04T00:15:27;4.40;99.90
21115;DHT22;10715;48.546;9.896;2023-02-04T00:17:53;4.50;99.90
21115;DHT22;10715;48.546;9.896;2023-02-04T00:20:19;4.50;99.90
21115;DHT22;10715;48.546;9.896;2023-02-04T00:22:45;4.50;99.90
21115;DHT22;10715;48.546;9.896;2023-02-04T00:25:11;4.50;99.90
21115;DHT22;10715;48.546;9.896;2023-02-04T00:27:37;4.50;99.90
21115;DHT22;10715;48.546;9.896;2023-02-04T00:30:06;4.50;99.90
21115;DHT22;10715;48.546;9.896;2023-02-04T00:32:33;4.60;99.90
21115;DHT22;10715;48.546;9.896;2023-02-04T00:34:58;4.50;99.90
21115;DHT22;10715;48.546;9.896;2023-02-04T00:37:26;4.50;99.90
21115;DHT22;10715;48.546;9.896;2023-02-04T00:39:51;4.50;99.90
21115;DHT22;10715;48.546;9.896;2023-02-04T00:42:17;4.50;99.90
21115;DHT22;10715;48.546;9.896;2023-02-04T00:44:43;4.50;99.90
21115;DHT22;10715;48.546;9.896;2023-02-04T00:47:09;4.50;99.90
21115;DHT22;10715;48.546;9.896;2023-02-04T00:49:35;4.60;99.90
21115;DHT22;10715;48.546;9.896;2023-02-04T00:52:01;4.60;99.90
21115;DHT22;10715;48.546;9.896;2023-02-04T00:54:26;4.60;99.90
21115;DHT22;10715;48.546;9.896;2023-02-04T00:56:52;4.60;99.90
21115;DHT22;10715;48.546;9.896;2023-02-04T00:59:18;4.60;99.90
21115;DHT22;10715;48.546;9.896;2023-02-04T01:01:44;4.70;99.90
21115;DHT22;10715;48.546;9.896;2023-02-04T01:04:09;4.70;99.90
21115;DHT22;10715;48.546;9.896;2023-02-04T01:06:35;4.70;99.90
21115;DHT22;10715;48.546;9.896;2023-02-04T01:09:02;4.70;99.90
21115;DHT22;10715;48.546;9.896;2023-02-04T01:11:29;4.70;99.90
21115;DHT22;10715;48.546;9.896;2023-02-04T01:13:54;4.60;99.90
21115;DHT22;10715;48.546;9.896;2023-02-04T01:16:20;4.60;99.90
21115;DHT22;10715;48.546;9.896;2023-02-04T01:18:46;4.60;99.90
21115;DHT22;10715;48.546;9.896;2023-02-04T01:21:12;4.60;99.90
21115;DHT22;10715;48.546;9.896;2023-02-04T01:23:37;4.50;99.90
21115;DHT22;10715;48.546;9.896;2023-02-04T01:26:03;4.50;99.90
21115;DHT22;10715;48.546;9.896;2023-02-04T01:28:29;4.50;99.90
21115;DHT22;10715;48.546;9.896;2023-02-04T01:30:55;4.50;99.90
21115;DHT22;10715;48.546;9.896;2023-02-04T01:33:21;4.40;99.90
21115;DHT22;10715;48.546;9.896;2023-02-04T01:35:47;4.40;99.90
21115;DHT22;10715;48.546;9.896;2023-02-04T01:38:13;4.40;99.90
21115;DHT22;10715;48.546;9.896;2023-02-04T01:40:39;4.40;99.90
21115;DHT22;10715;48.546;9.896;2023-02-04T01:43:09;4.40;99.90
21115;DHT22;10715;48.546;9.896;2023-02-04T01:45:35;4.40;99.90
21115;DHT22;10715;48.546;9.896;2023-02-04T01:48:03;4.40;99.90
21115;DHT22;10715;48.546;9.896;2023-02-04T01:50:30;4.40;99.90
21115;DHT22;10715;48.546;9.896;2023-02-04T01:52:56;4.30;99.90
21115;DHT22;10715;48.546;9.896;2023-02-04T01:55:25;4.30;99.90
21115;DHT22;10715;48.546;9.896;2023-02-04T01:57:52;4.30;99.90
21115;DHT22;10715;48.546;9.896;2023-02-04T02:00:30;4.30;99.90
21115;DHT22;10715;48.546;9.896;2023-02-04T02:02:57;4.30;99.90
21115;DHT22;10715;48.546;9.896;2023-02-04T02:05:31;4.20;99.90
21115;DHT22;10715;48.546;9.896;2023-02-04T02:08:01;4.20;99.90
21115;DHT22;10715;48.546;9.896;2023-02-04T02:10:28;4.20;99.90
21115;DHT22;10715;48.546;9.896;2023-02-04T02:12:54;4.20;99.90
21115;DHT22;10715;48.546;9.896;2023-02-04T02:15:21;4.10;99.90
21115;DHT22;10715;48.546;9.896;2023-02-04T02:17:47;4.10;99.90
21115;DHT22;10715;48.546;9.896;2023-02-04T02:20:15;4.10;99.90
21115;DHT22;10715;48.546;9.896;2023-02-04T02:22:52;4.10;99.90
21115;DHT22;10715;48.546;9.896;2023-02-04T02:25:22;4.10;99.90
21115;DHT22;10715;48.546;9.896;2023-02-04T02:27:48;4.20;99.90
21115;DHT22;10715;48.546;9.896;2023-02-04T02:30:15;4.20;99.90
21115;DHT22;10715;48.546;9.896;2023-02-04T02:32:43;4.20;99.90
21115;DHT22;10715;48.546;9.896;2023-02-04T02:35:09;4.20;99.90
21115;DHT22;10715;48.546;9.896;2023-02-04T02:37:35;4.20;99.90
21115;DHT22;10715;48.546;9.896;2023-02-04T02:40:02;4.20;99.90
21115;DHT22;10715;48.546;9.896;2023-02-04T02:42:28;4.20;99.90
21115;DHT22;10715;48.546;9.896;2023-02-04T02:44:55;4.20;99.90
21115;DHT22;10715;48.546;9.896;2023-02-04T02:47:21;4.20;99.90
21115;DHT22;10715;48.546;9.896;2023-02-04T02:49:50;4.20;99.90
21115;DHT22;10715;48.546;9.896;2023-02-04T02:52:16;4.20;99.90
21115;DHT22;10715;48.546;9.896;2023-02-04T02:54:42;4.20;99.90
21115;DHT22;10715;48.546;9.896;2023-02-04T02:57:18;4.20;99.90
21115;DHT22;10715;48.546;9.896;2023-02-04T02:59:44;4.20;99.90
21115;DHT22;10715;48.546;9.896;2023-02-04T03:02:12;4.20;99.90
21115;DHT22;10715;48.546;9.896;2023-02-04T03:04:44;4.20;99.90
21115;DHT22;10715;48.546;9.896;2023-02-04T03:07:13;4.20;99.90
21115;DHT22;10715;48.546;9.896;2023-02-04T03:09:39;4.20;99.90
21115;DHT22;10715;48.546;9.896;2023-02-04T03:12:05;4.30;99.90
21115;DHT22;10715;48.546;9.896;2023-02-04T03:14:31;4.30;99.90
21115;DHT22;10715;48.546;9.896;2023-02-04T03:16:58;4.30;99.90
21115;DHT22;10715;48.546;9.896;2023-02-04T03:19:27;4.30;99.90
21115;DHT22;10715;48.546;9.896;2023-02-04T03:21:56;4.30;99.90
21115;DHT22;10715;48.546;9.896;2023-02-04T03:24:23;4.30;99.90
21115;DHT22;10715;48.546;9.896;2023-02-04T03:26:49;4.30;99.90
21115;DHT22;10715;48.546;9.896;2023-02-04T03:29:15;4.30;99.90
21115;DHT22;10715;48.546;9.896;2023-02-04T03:31:41;4.30;99.90
21115;DHT22;10715;48.546;9.896;2023-02-04T03:34:07;4.30;99.90
21115;DHT22;10715;48.546;9.896;2023-02-04T03:36:33;4.30;99.90
21115;DHT22;10715;48.546;9.896;2023-02-04T03:38:58;4.20;99.90
21115;DHT22;10715;48.546;9.896;2023-02-04T03:41:24;4.20;99.90
21115;DHT22;10715;48.546;9.896;2023-02-04T03:43:50;4.20;99.90
21115;DHT22;10715;48.546;9.896;2023-02-04T03:46:15;4.20;99.90
21115;DHT22;10715;48.546;9.896;2023-02-04T03:48:41;4.20;99.90
21115;DHT22;10715;48.546;9.896;2023-02-04T03:51:07;4.20;99.90
21115;DHT22;10715;48.546;9.896;2023-02-04T03:53:32;4.10;99.90
21115;DHT22;10715;48.546;9.896;2023-02-04T03:55:59;4.10;99.90
21115;DHT22;10715;48.546;9.896;2023-02-04T03:58:24;4.10;99.90
21115;DHT22;10715;48.546;9.896;2023-02-04T04:00:50;4.10;99.90
21115;DHT22;10715;48.546;9.896;2023-02-04T04:03:16;4.10;99.90
21115;DHT22;10715;48.546;9.896;2023-02-04T04:05:42;4.10;99.90
21115;DHT22;10715;48.546;9.896;2023-02-04T04:08:07;4.10;99.90
21115;DHT22;10715;48.546;9.896;2023-02-04T04:10:33;4.00;99.90
21115;DHT22;10715;48.546;9.896;2023-02-04T04:12:59;4.00;99.90
21115;DHT22;10715;48.546;9.896;2023-02-04T04:15:24;4.00;99.90
21115;DHT22;10715;48.546;9.896;2023-02-04T04:17:50;4.00;99.90
21115;DHT22;10715;48.546;9.896;2023-02-04T04:20:16;3.90;99.90
21115;DHT22;10715;48.546;9.896;2023-02-04T04:22:42;3.90;99.90
21115;DHT22;10715;48.546;9.896;2023-02-04T04:25:08;3.80;99.90
21115;DHT22;10715;48.546;9.896;2023-02-04T04:27:33;3.90;99.90
21115;DHT22;10715;48.546;9.896;2023-02-04T04:29:59;3.80;99.90
21115;DHT22;10715;48.546;9.896;2023-02-04T04:32:26;3.80;99.90
21115;DHT22;10715;48.546;9.896;2023-02-04T04:34:51;3.80;99.90
21115;DHT22;10715;48.546;9.896;2023-02-04T04:37:18;3.80;99.90
21115;DHT22;10715;48.546;9.896;2023-02-04T04:39:44;3.70;99.90
21115;DHT22;10715;48.546;9.896;2023-02-04T04:42:10;3.70;99.90
21115;DHT22;10715;48.546;9.896;2023-02-04T04:44:35;3.70;99.90
21115;DHT22;10715;48.546;9.896;2023-02-04T04:47:01;3.70;99.90
21115;DHT22;10715;48.546;9.896;2023-02-04T04:49:27;3.60;99.90
21115;DHT22;10715;48.546;9.896;2023-02-04T04:51:53;3.60;99.90
21115;DHT22;10715;48.546;9.896;2023-02-04T04:54:18;3.60;99.90
21115;DHT22;10715;48.546;9.896;2023-02-04T04:56:44;3.50;99.90
21115;DHT22;10715;48.546;9.896;2023-02-04T04:59:10;3.50;99.90
21115;DHT22;10715;48.546;9.896;2023-02-04T05:01:35;3.40;99.90
21115;DHT22;10715;48.546;9.896;2023-02-04T05:04:01;3.30;99.90
21115;DHT22;10715;48.546;9.896;2023-02-04T05:06:28;3.20;99.90
21115;DHT22;10715;48.546;9.896;2023-02-04T05:08:54;3.20;99.90
21115;DHT22;10715;48.546;9.896;2023-02-04T05:11:20;3.10;99.90
21115;DHT22;10715;48.546;9.896;2023-02-04T05:13:46;3.00;99.90
21115;DHT22;10715;48.546;9.896;2023-02-04T05:16:12;2.90;99.90
21115;DHT22;10715;48.546;9.896;2023-02-04T05:18:38;2.90;99.90
21115;DHT22;10715;48.546;9.896;2023-02-04T05:21:04;2.80;99.90
21115;DHT22;10715;48.546;9.896;2023-02-04T05:23:31;2.80;99.90
21115;DHT22;10715;48.546;9.896;2023-02-04T05:25:56;2.70;99.90
21115;DHT22;10715;48.546;9.896;2023-02-04T05:28:22;2.70;99.90
21115;DHT22;10715;48.546;9.896;2023-02-04T05:30:48;2.70;99.90
21115;DHT22;10715;48.546;9.896;2023-02-04T05:33:13;2.60;99.90
21115;DHT22;10715;48.546;9.896;2023-02-04T05:35:39;2.60;99.90
21115;DHT22;10715;48.546;9.896;2023-02-04T05:38:05;2.60;99.90
21115;DHT22;10715;48.546;9.896;2023-02-04T05:40:30;2.60;99.90
21115;DHT22;10715;48.546;9.896;2023-02-04T05:42:56;2.50;99.90
21115;DHT22;10715;48.546;9.896;2023-02-04T05:45:22;2.50;99.90
21115;DHT22;10715;48.546;9.896;2023-02-04T05:47:48;2.50;99.90
21115;DHT22;10715;48.546;9.896;2023-02-04T05:50:14;2.40;99.90
21115;DHT22;10715;48.546;9.896;2023-02-04T05:52:39;2.40;99.90
21115;DHT22;10715;48.546;9.896;2023-02-04T05:55:06;2.40;99.90
21115;DHT22;10715;48.546;9.896;2023-02-04T05:57:33;2.30;99.90
21115;DHT22;10715;48.546;9.896;2023-02-04T06:00:00;2.30;99.90
21115;DHT22;10715;48.546;9.896;2023-02-04T06:02:25;2.30;99.90
21115;DHT22;10715;48.546;9.896;2023-02-04T06:04:51;2.20;99.90
21115;DHT22;10715;48.546;9.896;2023-02-04T06:07:16;2.20;99.90
21115;DHT22;10715;48.546;9.896;2023-02-04T06:09:42;2.10;99.90
21115;DHT22;10715;48.546;9.896;2023-02-04T06:12:09;2.10;99.90
21115;DHT22;10715;48.546;9.896;2023-02-04T06:14:35;2.10;99.90
21115;DHT22;10715;48.546;9.896;2023-02-04T06:17:00;2.20;99.90
21115;DHT22;10715;48.546;9.896;2023-02-04T06:19:26;2.20;99.90
21115;DHT22;10715;48.546;9.896;2023-02-04T06:21:52;2.30;99.90
21115;DHT22;10715;48.546;9.896;2023-02-04T06:24:18;2.30;99.90
21115;DHT22;10715;48.546;9.896;2023-02-04T06:26:43;2.30;99.90
21115;DHT22;10715;48.546;9.896;2023-02-04T06:29:09;2.30;99.90
21115;DHT22;10715;48.546;9.896;2023-02-04T06:31:35;2.30;99.90
21115;DHT22;10715;48.546;9.896;2023-02-04T06:34:04;2.30;99.90
21115;DHT22;10715;48.546;9.896;2023-02-04T06:36:30;2.20;99.90
21115;DHT22;10715;48.546;9.896;2023-02-04T06:38:55;2.30;99.90
21115;DHT22;10715;48.546;9.896;2023-02-04T06:41:22;2.30;99.90
21115;DHT22;10715;48.546;9.896;2023-02-04T06:43:48;2.30;99.90
21115;DHT22;10715;48.546;9.896;2023-02-04T06:46:13;2.30;99.90
21115;DHT22;10715;48.546;9.896;2023-02-04T06:48:39;2.30;99.90
21115;DHT22;10715;48.546;9.896;2023-02-04T06:51:05;2.40;99.90
21115;DHT22;10715;48.546;9.896;2023-02-04T06:53:31;2.40;99.90
21115;DHT22;10715;48.546;9.896;2023-02-04T06:55:56;2.40;99.90
21115;DHT22;10715;48.546;9.896;2023-02-04T06:58:22;2.40;99.90
21115;DHT22;10715;48.546;9.896;2023-02-04T07:00:48;2.40;99.90
21115;DHT22;10715;48.546;9.896;2023-02-04T07:03:13;2.40;99.90
21115;DHT22;10715;48.546;9.896;2023-02-04T07:05:39;2.40;99.90
21115;DHT22;10715;48.546;9.896;2023-02-04T07:08:05;2.40;99.90
21115;DHT22;10715;48.546;9.896;2023-02-04T07:10:30;2.40;99.90
21115;DHT22;10715;48.546;9.896;2023-02-04T07:12:57;2.50;99.90
21115;DHT22;10715;48.546;9.896;2023-02-04T07:15:23;2.50;99.90
21115;DHT22;10715;48.546;9.896;2023-02-04T07:17:48;2.50;99.90
21115;DHT22;10715;48.546;9.896;2023-02-04T07:20:14;2.60;99.90
21115;DHT22;10715;48.546;9.896;2023-02-04T07:22:40;2.60;99.90
21115;DHT22;10715;48.546;9.896;2023-02-04T07:25:07;2.60;99.90
21115;DHT22;10715;48.546;9.896;2023-02-04T07:27:32;2.70;99.90
21115;DHT22;10715;48.546;9.896;2023-02-04T07:29:58;2.70;99.90
21115;DHT22;10715;48.546;9.896;2023-02-04T07:32:24;2.80;99.90
21115;DHT22;10715;48.546;9.896;2023-02-04T07:34:52;2.90;99.90
21115;DHT22;10715;48.546;9.896;2023-02-04T07:37:18;3.00;99.90
21115;DHT22;10715;48.546;9.896;2023-02-04T07:39:45;3.00;99.90
21115;DHT22;10715;48.546;9.896;2023-02-04T07:42:10;3.10;99.90
21115;DHT22;10715;48.546;9.896;2023-02-04T07:44:36;3.10;99.90
21115;DHT22;10715;48.546;9.896;2023-02-04T07:47:02;3.20;99.90
21115;DHT22;10715;48.546;9.896;2023-02-04T07:49:28;3.20;99.90
21115;DHT22;10715;48.546;9.896;2023-02-04T07:51:53;3.30;99.90
21115;DHT22;10715;48.546;9.896;2023-02-04T07:54:19;3.30;99.90
21115;DHT22;10715;48.546;9.896;2023-02-04T07:56:45;3.30;99.90
21115;DHT22;10715;48.546;9.896;2023-02-04T07:59:10;3.30;99.90
21115;DHT22;10715;48.546;9.896;2023-02-04T08:01:36;3.30;99.90
21115;DHT22;10715;48.546;9.896;2023-02-04T08:04:02;3.30;99.90
21115;DHT22;10715;48.546;9.896;2023-02-04T08:06:28;3.30;99.90
21115;DHT22;10715;48.546;9.896;2023-02-04T08:08:53;3.40;99.90
21115;DHT22;10715;48.546;9.896;2023-02-04T08:11:19;3.40;99.90
21115;DHT22;10715;48.546;9.896;2023-02-04T08:13:45;3.50;99.90
21115;DHT22;10715;48.546;9.896;2023-02-04T08:16:10;3.50;99.90
21115;DHT22;10715;48.546;9.896;2023-02-04T08:18:36;3.60;99.90
21115;DHT22;10715;48.546;9.896;2023-02-04T08:21:02;3.60;99.90
21115;DHT22;10715;48.546;9.896;2023-02-04T08:23:29;3.60;99.90
21115;DHT22;10715;48.546;9.896;2023-02-04T08:25:55;3.60;99.90
21115;DHT22;10715;48.546;9.896;2023-02-04T08:28:21;3.60;99.90
21115;DHT22;10715;48.546;9.896;2023-02-04T08:30:47;3.60;99.90
21115;DHT22;10715;48.546;9.896;2023-02-04T08:33:12;3.70;99.90
21115;DHT22;10715;48.546;9.896;2023-02-04T08:35:38;3.70;99.90
21115;DHT22;10715;48.546;9.896;2023-02-04T08:38:04;3.80;99.90
21115;DHT22;10715;48.546;9.896;2023-02-04T08:40:29;4.00;99.90
21115;DHT22;10715;48.546;9.896;2023-02-04T08:42:55;4.10;99.90
21115;DHT22;10715;48.546;9.896;2023-02-04T08:45:20;4.10;99.90
21115;DHT22;10715;48.546;9.896;2023-02-04T08:47:46;4.10;99.90
21115;DHT22;10715;48.546;9.896;2023-02-04T08:50:12;4.10;99.90
21115;DHT22;10715;48.546;9.896;2023-02-04T08:52:38;4.10;99.90
21115;DHT22;10715;48.546;9.896;2023-02-04T08:55:04;4.20;99.90
21115;DHT22;10715;48.546;9.896;2023-02-04T08:57:30;4.20;99.90
21115;DHT22;10715;48.546;9.896;2023-02-04T08:59:56;4.30;99.90
21115;DHT22;10715;48.546;9.896;2023-02-04T09:02:22;4.40;99.90
21115;DHT22;10715;48.546;9.896;2023-02-04T09:04:47;4.50;99.90
21115;DHT22;10715;48.546;9.896;2023-02-04T09:07:13;4.50;99.90
21115;DHT22;10715;48.546;9.896;2023-02-04T09:09:38;4.50;99.90
21115;DHT22;10715;48.546;9.896;2023-02-04T09:12:04;4.50;99.90
21115;DHT22;10715;48.546;9.896;2023-02-04T09:14:30;4.50;99.90
21115;DHT22;10715;48.546;9.896;2023-02-04T09:16:56;4.50;99.90
21115;DHT22;10715;48.546;9.896;2023-02-04T09:19:21;4.50;99.90
21115;DHT22;10715;48.546;9.896;2023-02-04T09:21:51;4.60;99.90
21115;DHT22;10715;48.546;9.896;2023-02-04T09:24:16;4.60;99.90
21115;DHT22;10715;48.546;9.896;2023-02-04T09:26:42;4.60;99.90
21115;DHT22;10715;48.546;9.896;2023-02-04T09:29:08;4.50;99.90
21115;DHT22;10715;48.546;9.896;2023-02-04T09:31:34;4.50;99.90
21115;DHT22;10715;48.546;9.896;2023-02-04T09:33:59;4.60;99.90
21115;DHT22;10715;48.546;9.896;2023-02-04T09:36:25;4.70;99.90
21115;DHT22;10715;48.546;9.896;2023-02-04T09:38:53;4.70;99.90
21115;DHT22;10715;48.546;9.896;2023-02-04T09:41:19;4.70;99.90
21115;DHT22;10715;48.546;9.896;2023-02-04T09:43:45;4.70;99.90
21115;DHT22;10715;48.546;9.896;2023-02-04T09:46:23;4.80;99.90
21115;DHT22;10715;48.546;9.896;2023-02-04T09:48:50;4.80;99.90
21115;DHT22;10715;48.546;9.896;2023-02-04T09:51:26;4.70;99.90
21115;DHT22;10715;48.546;9.896;2023-02-04T09:53:55;4.70;99.90
21115;DHT22;10715;48.546;9.896;2023-02-04T09:56:25;4.60;99.90
21115;DHT22;10715;48.546;9.896;2023-02-04T09:58:51;4.60;99.90
21115;DHT22;10715;48.546;9.896;2023-02-04T10:01:18;4.60;99.90
21115;DHT22;10715;48.546;9.896;2023-02-04T10:03:47;4.60;99.90
21115;DHT22;10715;48.546;9.896;2023-02-04T10:06:17;4.80;99.90
21115;DHT22;10715;48.546;9.896;2023-02-04T10:08:45;4.90;99.90
21115;DHT22;10715;48.546;9.896;2023-02-04T10:11:12;5.00;99.90
21115;DHT22;10715;48.546;9.896;2023-02-04T10:13:42;5.00;99.90
21115;DHT22;10715;48.546;9.896;2023-02-04T10:16:16;5.10;99.90
21115;DHT22;10715;48.546;9.896;2023-02-04T10:18:43;5.10;99.90
21115;DHT22;10715;48.546;9.896;2023-02-04T10:21:21;5.10;99.90
21115;DHT22;10715;48.546;9.896;2023-02-04T10:23:50;5.10;99.90
21115;DHT22;10715;48.546;9.896;2023-02-04T10:26:20;5.10;99.90
21115;DHT22;10715;48.546;9.896;2023-02-04T10:28:46;5.10;99.90
21115;DHT22;10715;48.546;9.896;2023-02-04T10:31:36;5.10;99.90
21115;DHT22;10715;48.546;9.896;2023-02-04T10:34:09;5.00;99.90
21115;DHT22;10715;48.546;9.896;2023-02-04T10:36:35;4.80;99.90
21115;DHT22;10715;48.546;9.896;2023-02-04T10:39:04;4.80;99.90
21115;DHT22;10715;48.546;9.896;2023-02-04T10:41:30;4.70;99.90
21115;DHT22;10715;48.546;9.896;2023-02-04T10:44:08;4.80;99.90
21115;DHT22;10715;48.546;9.896;2023-02-04T10:46:34;4.90;99.90
21115;DHT22;10715;48.546;9.896;2023-02-04T10:49:24;5.00;99.90
21115;DHT22;10715;48.546;9.896;2023-02-04T10:51:50;5.10;99.90
21115;DHT22;10715;48.546;9.896;2023-02-04T10:54:25;5.20;99.90
21115;DHT22;10715;48.546;9.896;2023-02-04T10:57:20;5.30;99.90
21115;DHT22;10715;48.546;9.896;2023-02-04T10:59:51;5.30;99.90
21115;DHT22;10715;48.546;9.896;2023-02-04T11:05:30;5.40;99.90
21115;DHT22;10715;48.546;9.896;2023-02-04T11:07:56;5.30;99.90
21115;DHT22;10715;48.546;9.896;2023-02-04T11:10:31;5.30;99.90
21115;DHT22;10715;48.546;9.896;2023-02-04T11:15:46;5.40;99.90
21115;DHT22;10715;48.546;9.896;2023-02-04T11:20:53;5.90;99.90
21115;DHT22;10715;48.546;9.896;2023-02-04T11:26:11;6.40;99.90
21115;DHT22;10715;48.546;9.896;2023-02-04T11:28:53;6.60;99.90
21115;DHT22;10715;48.546;9.896;2023-02-04T11:33:46;6.80;99.90
21115;DHT22;10715;48.546;9.896;2023-02-04T11:36:14;6.90;99.90
21115;DHT22;10715;48.546;9.896;2023-02-04T11:38:48;7.00;99.90
21115;DHT22;10715;48.546;9.896;2023-02-04T11:41:22;7.10;99.90
21115;DHT22;10715;48.546;9.896;2023-02-04T11:43:52;7.00;99.90
21115;DHT22;10715;48.546;9.896;2023-02-04T11:46:22;7.00;99.90
21115;DHT22;10715;48.546;9.896;2023-02-04T11:48:54;7.00;99.90
21115;DHT22;10715;48.546;9.896;2023-02-04T11:51:25;7.10;99.90
21115;DHT22;10715;48.546;9.896;2023-02-04T11:53:52;7.00;99.90
21115;DHT22;10715;48.546;9.896;2023-02-04T11:56:19;6.70;99.90
21115;DHT22;10715;48.546;9.896;2023-02-04T11:58:46;6.30;99.90
21115;DHT22;10715;48.546;9.896;2023-02-04T12:01:36;6.00;99.90
21115;DHT22;10715;48.546;9.896;2023-02-04T12:04:05;5.80;99.90
21115;DHT22;10715;48.546;9.896;2023-02-04T12:06:34;5.60;99.90
21115;DHT22;10715;48.546;9.896;2023-02-04T12:11:34;5.00;99.90
21115;DHT22;10715;48.546;9.896;2023-02-04T12:14:08;4.90;99.90
21115;DHT22;10715;48.546;9.896;2023-02-04T12:16:47;5.00;99.90
21115;DHT22;10715;48.546;9.896;2023-02-04T12:19:13;5.10;99.90
21115;DHT22;10715;48.546;9.896;2023-02-04T12:21:40;5.20;99.90
21115;DHT22;10715;48.546;9.896;2023-02-04T12:24:06;5.00;99.90
21115;DHT22;10715;48.546;9.896;2023-02-04T12:26:32;5.00;99.90
21115;DHT22;10715;48.546;9.896;2023-02-04T12:28:57;4.90;99.90
21115;DHT22;10715;48.546;9.896;2023-02-04T12:31:32;5.00;99.90
21115;DHT22;10715;48.546;9.896;2023-02-04T12:33:58;5.10;99.90
21115;DHT22;10715;48.546;9.896;2023-02-04T12:36:24;5.20;99.90
21115;DHT22;10715;48.546;9.896;2023-02-04T12:38:52;5.10;99.90
21115;DHT22;10715;48.546;9.896;2023-02-04T12:41:18;5.10;99.90
21115;DHT22;10715;48.546;9.896;2023-02-04T12:43:45;5.10;99.90
21115;DHT22;10715;48.546;9.896;2023-02-04T12:46:11;5.10;99.90
21115;DHT22;10715;48.546;9.896;2023-02-04T12:48:36;5.10;99.90
21115;DHT22;10715;48.546;9.896;2023-02-04T12:51:06;5.10;99.90
21115;DHT22;10715;48.546;9.896;2023-02-04T12:53:32;5.10;99.90
21115;DHT22;10715;48.546;9.896;2023-02-04T12:55:57;5.20;99.90
21115;DHT22;10715;48.546;9.896;2023-02-04T12:58:23;5.20;99.90
21115;DHT22;10715;48.546;9.896;2023-02-04T13:00:49;5.20;99.90
21115;DHT22;10715;48.546;9.896;2023-02-04T13:03:15;5.20;99.90
21115;DHT22;10715;48.546;9.896;2023-02-04T13:05:40;5.10;99.90
21115;DHT22;10715;48.546;9.896;2023-02-04T13:08:06;5.10;99.90
21115;DHT22;10715;48.546;9.896;2023-02-04T13:10:32;5.10;99.90
21115;DHT22;10715;48.546;9.896;2023-02-04T13:12:57;5.20;99.90
21115;DHT22;10715;48.546;9.896;2023-02-04T13:15:25;5.20;99.90
21115;DHT22;10715;48.546;9.896;2023-02-04T13:17:51;5.20;99.90
21115;DHT22;10715;48.546;9.896;2023-02-04T13:20:18;5.30;99.90
21115;DHT22;10715;48.546;9.896;2023-02-04T13:22:43;5.40;99.90
21115;DHT22;10715;48.546;9.896;2023-02-04T13:25:09;5.50;99.90
21115;DHT22;10715;48.546;9.896;2023-02-04T13:27:37;5.60;99.90
21115;DHT22;10715;48.546;9.896;2023-02-04T13:30:04;5.60;99.90
21115;DHT22;10715;48.546;9.896;2023-02-04T13:32:30;5.70;99.90
21115;DHT22;10715;48.546;9.896;2023-02-04T13:34:56;5.70;99.90
21115;DHT22;10715;48.546;9.896;2023-02-04T13:37:22;5.80;99.90
21115;DHT22;10715;48.546;9.896;2023-02-04T13:39:47;5.90;99.90
21115;DHT22;10715;48.546;9.896;2023-02-04T13:42:13;5.80;99.90
21115;DHT22;10715;48.546;9.896;2023-02-04T13:44:39;5.50;99.90
21115;DHT22;10715;48.546;9.896;2023-02-04T13:47:04;5.30;99.90
21115;DHT22;10715;48.546;9.896;2023-02-04T13:49:30;5.10;99.90
21115;DHT22;10715;48.546;9.896;2023-02-04T13:51:56;4.90;99.90
21115;DHT22;10715;48.546;9.896;2023-02-04T13:54:21;4.70;99.90
21115;DHT22;10715;48.546;9.896;2023-02-04T13:56:47;4.50;99.90
21115;DHT22;10715;48.546;9.896;2023-02-04T13:59:13;4.40;99.90
21115;DHT22;10715;48.546;9.896;2023-02-04T14:01:39;4.20;99.90
21115;DHT22;10715;48.546;9.896;2023-02-04T14:04:04;4.10;99.90
21115;DHT22;10715;48.546;9.896;2023-02-04T14:06:30;4.00;99.90
21115;DHT22;10715;48.546;9.896;2023-02-04T14:09:00;4.10;99.90
21115;DHT22;10715;48.546;9.896;2023-02-04T14:11:26;4.10;99.90
21115;DHT22;10715;48.546;9.896;2023-02-04T14:13:52;4.30;99.90
21115;DHT22;10715;48.546;9.896;2023-02-04T14:16:18;4.30;99.90
21115;DHT22;10715;48.546;9.896;2023-02-04T14:18:43;4.20;99.90
21115;DHT22;10715;48.546;9.896;2023-02-04T14:21:09;4.30;99.90
21115;DHT22;10715;48.546;9.896;2023-02-04T14:23:35;4.40;99.90
21115;DHT22;10715;48.546;9.896;2023-02-04T14:26:01;4.50;99.90
21115;DHT22;10715;48.546;9.896;2023-02-04T14:28:26;4.60;99.90
21115;DHT22;10715;48.546;9.896;2023-02-04T14:30:52;4.70;99.90
21115;DHT22;10715;48.546;9.896;2023-02-04T14:33:19;4.90;99.90
21115;DHT22;10715;48.546;9.896;2023-02-04T14:35:45;5.00;99.90
21115;DHT22;10715;48.546;9.896;2023-02-04T14:38:11;5.20;99.90
21115;DHT22;10715;48.546;9.896;2023-02-04T14:40:43;5.10;99.90
21115;DHT22;10715;48.546;9.896;2023-02-04T14:43:10;5.00;99.90
21115;DHT22;10715;48.546;9.896;2023-02-04T14:45:37;4.80;99.90
21115;DHT22;10715;48.546;9.896;2023-02-04T14:48:03;4.80;99.90
21115;DHT22;10715;48.546;9.896;2023-02-04T14:50:29;4.70;99.90
21115;DHT22;10715;48.546;9.896;2023-02-04T14:52:55;4.60;99.90
21115;DHT22;10715;48.546;9.896;2023-02-04T14:55:22;4.60;99.90
21115;DHT22;10715;48.546;9.896;2023-02-04T14:57:48;4.60;99.90
21115;DHT22;10715;48.546;9.896;2023-02-04T15:00:14;4.50;99.90
21115;DHT22;10715;48.546;9.896;2023-02-04T15:02:40;4.50;99.90
21115;DHT22;10715;48.546;9.896;2023-02-04T15:05:07;4.40;99.90
21115;DHT22;10715;48.546;9.896;2023-02-04T15:07:33;4.40;99.90
21115;DHT22;10715;48.546;9.896;2023-02-04T15:09:59;4.30;99.90
21115;DHT22;10715;48.546;9.896;2023-02-04T15:12:25;4.20;99.90
21115;DHT22;10715;48.546;9.896;2023-02-04T15:14:50;4.10;99.90
21115;DHT22;10715;48.546;9.896;2023-02-04T15:17:16;3.90;99.90
21115;DHT22;10715;48.546;9.896;2023-02-04T15:19:45;3.80;99.90
21115;DHT22;10715;48.546;9.896;2023-02-04T15:22:10;3.70;99.90
21115;DHT22;10715;48.546;9.896;2023-02-04T15:24:37;3.60;99.90
21115;DHT22;10715;48.546;9.896;2023-02-04T15:27:04;3.60;99.90
21115;DHT22;10715;48.546;9.896;2023-02-04T15:29:30;3.50;99.90
21115;DHT22;10715;48.546;9.896;2023-02-04T15:31:56;3.40;99.90
21115;DHT22;10715;48.546;9.896;2023-02-04T15:34:22;3.40;99.90
21115;DHT22;10715;48.546;9.896;2023-02-04T15:36:48;3.30;99.90
21115;DHT22;10715;48.546;9.896;2023-02-04T15:39:14;3.30;99.90
21115;DHT22;10715;48.546;9.896;2023-02-04T15:41:39;3.30;99.90
21115;DHT22;10715;48.546;9.896;2023-02-04T15:44:05;3.30;99.90
21115;DHT22;10715;48.546;9.896;2023-02-04T15:46:32;3.20;99.90
21115;DHT22;10715;48.546;9.896;2023-02-04T15:48:59;3.20;99.90
21115;DHT22;10715;48.546;9.896;2023-02-04T15:51:25;3.10;99.90
21115;DHT22;10715;48.546;9.896;2023-02-04T15:53:51;3.00;99.90
21115;DHT22;10715;48.546;9.896;2023-02-04T15:56:16;2.90;99.90
21115;DHT22;10715;48.546;9.896;2023-02-04T15:58:42;2.80;99.90